Time;durP1;ratioP1;P1;durP2;ratioP2;P2;SDS_P1;SDS_P2;PMS_P1;PMS_P2;Temp;Humidity;BMP_temperature;BMP_pressure;BME280_temperature;BME280_humidity;BME280_pressure;Samples;Min_cycle;Max_cycle;Signal;HPM_P1;HPM_P2
2022/05/07 00:01:12;;;;;;;9.17;6.10;;;12.30;99.90;;;;;;5041403;28;20457;-78
2022/05/07 00:03:39;;;;;;;9.73;6.47;;;12.30;99.90;;;;;;5038699;28;20987;-78
2022/05/07 00:06:05;;;;;;;9.47;7.00;;;12.20;99.90;;;;;;5039346;28;20563;-78
2022/05/07 00:08:32;;;;;;;10.40;6.93;;;12.20;99.90;;;;;;5038349;28;20514;-78
2022/05/07 00:10:59;;;;;;;9.10;7.60;;;12.20;99.90;;;;;;5038286;28;20476;-79
2022/05/07 00:13:26;;;;;;;9.40;6.77;;;12.20;99.90;;;;;;5038605;28;20474;-79
2022/05/07 00:18:38;;;;;;;10.07;7.43;;;12.10;99.90;;;;;;5024233;28;20477;-79
2022/05/07 00:21:05;;;;;;;10.60;7.07;;;12.10;99.90;;;;;;5038875;28;20450;-78
2022/05/07 00:23:32;;;;;;;14.13;8.07;;;12.10;99.90;;;;;;5038764;28;20462;-78
2022/05/07 00:25:59;;;;;;;9.07;7.33;;;12.00;99.90;;;;;;5037871;28;20514;-78
2022/05/07 00:28:26;;;;;;;13.10;8.10;;;12.00;99.90;;;;;;5038881;28;20485;-77
2022/05/07 00:30:53;;;;;;;12.73;7.13;;;12.00;99.90;;;;;;5037841;28;20488;-79
2022/05/07 00:33:20;;;;;;;8.77;6.87;;;12.00;99.90;;;;;;5038199;28;20453;-78
2022/05/07 00:35:48;;;;;;;11.87;8.80;;;12.00;99.90;;;;;;5037264;28;20446;-78
2022/05/07 00:38:14;;;;;;;12.00;6.80;;;11.90;99.90;;;;;;5035097;28;20447;-79
2022/05/07 00:40:41;;;;;;;11.10;7.50;;;11.80;99.90;;;;;;5038831;28;20454;-80
2022/05/07 00:43:08;;;;;;;11.23;8.10;;;11.90;99.90;;;;;;5038838;28;20462;-78
2022/05/07 00:45:35;;;;;;;10.90;7.07;;;11.80;99.90;;;;;;5037746;28;20450;-80
2022/05/07 00:48:02;;;;;;;9.00;7.10;;;11.80;99.90;;;;;;5038707;28;20786;-78
2022/05/07 00:53:14;;;;;;;9.50;6.77;;;11.80;99.90;;;;;;5030607;28;20433;-79
2022/05/07 00:55:42;;;;;;;12.03;7.90;;;11.80;99.90;;;;;;5032531;28;20457;-79
2022/05/07 00:58:09;;;;;;;10.37;8.33;;;11.80;99.90;;;;;;5029490;28;20458;-78
2022/05/07 01:00:36;;;;;;;10.00;7.67;;;11.80;99.90;;;;;;5032882;28;20458;-79
2022/05/07 01:03:04;;;;;;;11.87;8.03;;;11.80;99.90;;;;;;5039832;28;20473;-78
2022/05/07 01:05:31;;;;;;;12.20;8.23;;;11.70;99.90;;;;;;5037708;28;20466;-79
2022/05/07 01:07:58;;;;;;;11.63;7.70;;;11.70;99.90;;;;;;5037649;28;20547;-79
2022/05/07 01:10:27;;;;;;;9.73;7.93;;;11.70;99.90;;;;;;5037402;28;20496;-78
2022/05/07 01:12:55;;;;;;;9.07;6.57;;;11.70;99.90;;;;;;5037691;28;20465;-78
2022/05/07 01:15:22;;;;;;;10.23;7.87;;;11.70;99.90;;;;;;5037382;28;20541;-79
2022/05/07 01:17:48;;;;;;;11.07;9.13;;;11.60;99.90;;;;;;5036421;28;20452;-79
2022/05/07 01:20:15;;;;;;;11.60;8.00;;;11.60;99.90;;;;;;5037144;28;20503;-78
2022/05/07 01:22:45;;;;;;;12.50;8.63;;;11.60;99.90;;;;;;5040940;28;20465;-78
2022/05/07 01:25:11;;;;;;;11.20;8.20;;;11.60;99.90;;;;;;5040070;28;20464;-77
2022/05/07 01:27:38;;;;;;;11.03;8.00;;;11.50;99.90;;;;;;5039401;28;20464;-78
2022/05/07 01:30:06;;;;;;;10.07;7.80;;;11.60;99.90;;;;;;5039475;28;20494;-79
2022/05/07 01:32:33;;;;;;;10.13;8.47;;;11.50;99.90;;;;;;5032174;28;20846;-78
2022/05/07 01:35:00;;;;;;;11.57;8.70;;;11.50;99.90;;;;;;5040159;28;20457;-79
2022/05/07 01:37:27;;;;;;;10.30;8.53;;;11.50;99.90;;;;;;5042339;28;20462;-78
2022/05/07 01:39:55;;;;;;;11.00;9.57;;;11.50;99.90;;;;;;5043370;28;20469;-78
2022/05/07 01:42:21;;;;;;;12.57;8.97;;;11.50;99.90;;;;;;5042608;28;20934;-79
2022/05/07 01:44:48;;;;;;;11.80;8.30;;;11.50;99.90;;;;;;5043093;28;20454;-78
2022/05/07 01:49:59;;;;;;;12.77;9.40;;;11.40;99.90;;;;;;5043657;28;20500;-79
2022/05/07 01:52:26;;;;;;;12.10;8.73;;;11.40;99.90;;;;;;5043220;28;20523;-78
2022/05/07 01:54:54;;;;;;;12.10;8.60;;;11.30;99.90;;;;;;5044218;28;20457;-78
2022/05/07 01:57:21;;;;;;;10.60;8.67;;;11.30;99.90;;;;;;5040359;28;20460;-78
2022/05/07 01:59:48;;;;;;;11.60;10.10;;;11.30;99.90;;;;;;5039720;28;20561;-77
2022/05/07 02:02:14;;;;;;;12.10;9.23;;;11.30;99.90;;;;;;5040248;28;20456;-78
2022/05/07 02:04:41;;;;;;;13.50;11.00;;;11.30;99.90;;;;;;5040308;28;20463;-79
2022/05/07 02:07:08;;;;;;;12.30;8.80;;;11.30;99.90;;;;;;5040040;28;20484;-79
2022/05/07 02:09:35;;;;;;;9.83;8.83;;;11.20;99.90;;;;;;5038669;28;20476;-79
2022/05/07 02:12:04;;;;;;;12.90;9.80;;;11.20;99.90;;;;;;5038778;28;20514;-78
2022/05/07 02:14:32;;;;;;;11.87;9.00;;;11.20;99.90;;;;;;5039571;28;20445;-79
2022/05/07 02:16:59;;;;;;;12.73;8.77;;;11.20;99.90;;;;;;5039428;28;20482;-79
2022/05/07 02:19:26;;;;;;;14.33;9.93;;;11.20;99.90;;;;;;5038964;28;20484;-78
2022/05/07 02:21:52;;;;;;;11.93;9.47;;;11.20;99.90;;;;;;5039755;28;20451;-78
2022/05/07 02:24:19;;;;;;;13.30;10.60;;;11.20;99.90;;;;;;5039951;28;20984;-78
2022/05/07 02:26:46;;;;;;;12.57;9.10;;;11.20;99.90;;;;;;5039826;28;20469;-77
2022/05/07 02:29:14;;;;;;;13.70;10.37;;;11.20;99.90;;;;;;5038110;28;20481;-78
2022/05/07 02:32:03;;;;;;;15.97;10.27;;;11.20;99.90;;;;;;5039667;28;20501;-79
2022/05/07 02:34:30;;;;;;;11.30;10.07;;;11.10;99.90;;;;;;5040523;28;20459;-79
2022/05/07 02:36:56;;;;;;;12.30;9.77;;;11.10;99.90;;;;;;5042609;28;20449;-78
2022/05/07 02:39:23;;;;;;;11.77;9.63;;;11.10;99.90;;;;;;5041458;28;20476;-78
2022/05/07 02:44:36;;;;;;;15.73;11.23;;;11.10;99.90;;;;;;5042316;28;20436;-79
2022/05/07 02:47:03;;;;;;;14.07;10.23;;;11.10;99.90;;;;;;5043089;28;20478;-78
2022/05/07 02:49:30;;;;;;;14.67;10.80;;;11.10;99.90;;;;;;5042557;28;20489;-77
2022/05/07 02:51:56;;;;;;;13.93;10.80;;;11.10;99.90;;;;;;5043358;28;20487;-77
2022/05/07 02:54:23;;;;;;;13.83;11.00;;;11.10;99.90;;;;;;5042586;28;20466;-78
2022/05/07 02:56:50;;;;;;;12.20;9.80;;;11.10;99.90;;;;;;5041610;28;20537;-78
2022/05/07 02:59:17;;;;;;;12.20;10.90;;;11.10;99.90;;;;;;5042368;28;20561;-78
2022/05/07 03:01:45;;;;;;;15.93;11.90;;;11.10;99.90;;;;;;5042243;28;20453;-77
2022/05/07 03:04:12;;;;;;;14.40;10.70;;;11.00;99.90;;;;;;5042428;28;20480;-79
2022/05/07 03:06:39;;;;;;;12.00;10.00;;;11.00;99.90;;;;;;5042839;28;20556;-78
2022/05/07 03:09:06;;;;;;;14.63;11.03;;;11.00;99.90;;;;;;5042203;28;20486;-78
2022/05/07 03:11:34;;;;;;;13.60;10.10;;;11.00;99.90;;;;;;5043999;28;20484;-78
2022/05/07 03:14:01;;;;;;;14.40;10.53;;;11.00;99.90;;;;;;5052366;28;20459;-79
2022/05/07 03:16:28;;;;;;;16.30;11.07;;;11.00;99.90;;;;;;5057405;28;20444;-78
2022/05/07 03:18:58;;;;;;;13.70;9.93;;;11.00;99.90;;;;;;5041638;28;20496;-79
2022/05/07 03:21:24;;;;;;;13.70;10.63;;;10.90;99.90;;;;;;5040699;28;20456;-78
2022/05/07 03:23:51;;;;;;;12.90;10.90;;;10.90;99.90;;;;;;5046416;28;20985;-79
2022/05/07 03:26:21;;;;;;;14.07;10.30;;;10.90;99.90;;;;;;5043732;28;20539;-79
2022/05/07 03:28:48;;;;;;;12.63;11.00;;;10.90;99.90;;;;;;5038259;28;20491;-79
2022/05/07 03:31:15;;;;;;;14.43;11.60;;;10.90;99.90;;;;;;5039731;28;20488;-78
2022/05/07 03:33:42;;;;;;;17.43;10.90;;;10.90;99.90;;;;;;5040388;28;20457;-78
2022/05/07 03:36:11;;;;;;;16.20;12.07;;;10.90;99.90;;;;;;5041258;28;20977;-79
2022/05/07 03:38:37;;;;;;;21.40;11.33;;;10.90;99.90;;;;;;5040875;28;20480;-79
2022/05/07 03:41:04;;;;;;;13.50;9.60;;;10.90;99.90;;;;;;5040862;28;20446;-78
2022/05/07 03:43:33;;;;;;;13.90;11.80;;;10.90;99.90;;;;;;5037484;28;20464;-77
2022/05/07 03:45:59;;;;;;;13.97;12.43;;;10.90;99.90;;;;;;5034122;28;20544;-77
2022/05/07 03:48:29;;;;;;;16.87;11.87;;;10.90;99.90;;;;;;5045995;28;20476;-78
2022/05/07 03:50:55;;;;;;;14.57;12.40;;;10.90;99.90;;;;;;5033184;28;20518;-77
2022/05/07 03:53:32;;;;;;;17.20;12.30;;;10.90;99.90;;;;;;5034242;28;20540;-78
2022/05/07 03:55:59;;;;;;;18.80;13.50;;;10.90;99.90;;;;;;5039120;28;20998;-77
2022/05/07 03:58:26;;;;;;;16.53;12.23;;;10.90;99.90;;;;;;5036573;28;20481;-76
2022/05/07 04:00:54;;;;;;;20.97;12.80;;;10.90;99.90;;;;;;5038472;28;20453;-78
2022/05/07 04:03:22;;;;;;;15.47;12.13;;;10.90;99.90;;;;;;5039575;28;20490;-78
2022/05/07 04:05:49;;;;;;;13.80;11.63;;;10.90;99.90;;;;;;5039030;28;20987;-78
2022/05/07 04:08:17;;;;;;;16.53;13.43;;;10.90;99.90;;;;;;5039272;28;20455;-78
2022/05/07 04:10:45;;;;;;;16.13;11.40;;;11.00;99.90;;;;;;5038834;28;20453;-78
2022/05/07 04:13:13;;;;;;;17.23;12.13;;;10.90;99.90;;;;;;5039615;28;20494;-77
2022/05/07 04:15:40;;;;;;;18.33;13.20;;;11.00;99.90;;;;;;5038658;28;20459;-78
2022/05/07 04:18:07;;;;;;;17.43;12.70;;;11.00;99.90;;;;;;5039287;28;20996;-78
2022/05/07 04:20:35;;;;;;;15.27;12.83;;;11.10;99.90;;;;;;5037510;28;20451;-77
2022/05/07 04:23:02;;;;;;;16.77;12.47;;;11.10;99.90;;;;;;5037684;28;20520;-77
2022/05/07 04:25:29;;;;;;;17.33;12.70;;;11.20;99.90;;;;;;5037714;28;20458;-77
2022/05/07 04:27:58;;;;;;;16.27;13.00;;;11.20;99.90;;;;;;5038178;28;20514;-78
2022/05/07 04:30:25;;;;;;;18.40;12.73;;;11.30;99.90;;;;;;5039735;28;20485;-78
2022/05/07 04:32:52;;;;;;;14.50;11.47;;;11.30;99.90;;;;;;5038874;28;20492;-78
2022/05/07 04:35:19;;;;;;;17.40;11.80;;;11.40;99.90;;;;;;5038547;28;20465;-78
2022/05/07 04:37:45;;;;;;;16.77;13.73;;;11.40;99.90;;;;;;5039757;28;20463;-78
2022/05/07 04:40:13;;;;;;;16.53;12.70;;;11.50;99.90;;;;;;5038218;28;20507;-78
2022/05/07 04:42:41;;;;;;;16.07;12.83;;;11.60;99.90;;;;;;5043333;28;20452;-77
2022/05/07 04:45:10;;;;;;;16.10;12.40;;;11.60;99.90;;;;;;5051873;28;20444;-77
2022/05/07 04:47:37;;;;;;;14.70;13.07;;;11.70;99.90;;;;;;5052030;28;20449;-78
2022/05/07 04:50:04;;;;;;;14.03;11.70;;;11.70;99.90;;;;;;5038555;28;20559;-77
2022/05/07 04:52:31;;;;;;;17.20;12.90;;;11.80;99.90;;;;;;5039630;28;20481;-77
2022/05/07 04:55:00;;;;;;;16.90;12.40;;;11.90;99.90;;;;;;5038883;28;20454;-77
2022/05/07 04:57:27;;;;;;;15.97;12.80;;;12.00;99.90;;;;;;5039254;28;20449;-78
2022/05/07 04:59:54;;;;;;;17.10;12.33;;;12.10;99.90;;;;;;5038297;28;20484;-77
2022/05/07 05:02:22;;;;;;;15.30;12.30;;;12.20;99.90;;;;;;5039294;28;20456;-78
2022/05/07 05:04:49;;;;;;;17.90;13.90;;;12.30;99.90;;;;;;5037865;28;20463;-78
2022/05/07 05:07:16;;;;;;;13.33;11.23;;;12.50;99.90;;;;;;5037231;28;20985;-78
2022/05/07 05:09:43;;;;;;;14.93;13.17;;;12.60;99.90;;;;;;5039505;28;20554;-77
2022/05/07 05:12:10;;;;;;;14.80;12.60;;;12.70;99.90;;;;;;5043180;28;20498;-78
2022/05/07 05:17:22;;;;;;;14.60;11.70;;;13.00;99.90;;;;;;5042494;28;20500;-77
2022/05/07 05:19:49;;;;;;;14.53;12.00;;;13.20;99.90;;;;;;5041550;28;20484;-78
2022/05/07 05:22:16;;;;;;;17.87;12.70;;;13.30;99.90;;;;;;5041732;28;20452;-78
2022/05/07 05:24:43;;;;;;;18.67;14.40;;;13.50;99.90;;;;;;5041754;28;20455;-78
2022/05/07 05:27:09;;;;;;;15.73;13.37;;;13.50;99.90;;;;;;5042136;28;20499;-79
2022/05/07 05:29:36;;;;;;;15.33;11.90;;;13.60;99.90;;;;;;5039879;28;20486;-78
2022/05/07 05:32:03;;;;;;;16.83;13.67;;;13.70;99.90;;;;;;5041153;28;20493;-77
2022/05/07 05:34:31;;;;;;;16.63;12.97;;;13.80;99.90;;;;;;5040984;28;20449;-77
2022/05/07 05:36:58;;;;;;;15.53;12.70;;;13.80;99.90;;;;;;5041563;28;20471;-77
2022/05/07 05:39:25;;;;;;;14.97;12.20;;;13.90;99.90;;;;;;5040589;28;20506;-78
2022/05/07 05:41:52;;;;;;;21.70;13.60;;;13.90;99.90;;;;;;5040712;28;20453;-78
2022/05/07 05:44:18;;;;;;;18.40;14.07;;;14.00;99.90;;;;;;5041185;28;20858;-77
2022/05/07 05:46:45;;;;;;;15.70;12.73;;;14.10;99.90;;;;;;5041471;28;20466;-78
2022/05/07 05:49:12;;;;;;;16.00;13.20;;;14.10;99.90;;;;;;5041322;28;20569;-78
2022/05/07 05:51:40;;;;;;;21.00;13.13;;;14.20;99.90;;;;;;5038826;28;20501;-77
2022/05/07 05:54:07;;;;;;;15.57;12.47;;;14.30;99.90;;;;;;5042457;22;20511;-82
2022/05/07 05:56:34;;;;;;;16.13;12.90;;;14.40;99.90;;;;;;5024361;28;20447;-82
2022/05/07 05:59:00;;;;;;;15.70;13.73;;;14.50;99.90;;;;;;5015253;28;20457;-80
2022/05/07 06:01:30;;;;;;;21.63;14.70;;;14.60;99.90;;;;;;5017840;28;20965;-82
2022/05/07 06:03:57;;;;;;;19.83;15.83;;;14.70;99.90;;;;;;5008329;28;20477;-82
2022/05/07 06:06:24;;;;;;;18.37;15.30;;;14.80;99.90;;;;;;5015064;28;20466;-82
2022/05/07 06:08:52;;;;;;;18.77;14.43;;;14.90;99.90;;;;;;5016744;28;20463;-82
2022/05/07 06:11:19;;;;;;;17.90;14.40;;;15.00;99.90;;;;;;5002333;28;20447;-82
2022/05/07 06:13:47;;;;;;;16.53;13.80;;;15.20;99.90;;;;;;5016055;28;20500;-82
2022/05/07 06:16:14;;;;;;;19.77;12.73;;;15.30;99.90;;;;;;4997385;28;20513;-82
2022/05/07 06:18:41;;;;;;;20.43;15.57;;;15.50;99.90;;;;;;5013693;28;20458;-80
2022/05/07 06:21:08;;;;;;;22.00;15.57;;;15.60;99.90;;;;;;5017160;28;20457;-81
2022/05/07 06:23:36;;;;;;;19.30;15.23;;;15.80;99.90;;;;;;5016325;28;20554;-81
2022/05/07 06:28:49;;;;;;;24.43;17.20;;;16.10;99.90;;;;;;5022718;28;20847;-81
2022/05/07 06:31:17;;;;;;;21.63;16.90;;;16.30;99.90;;;;;;5017820;28;20473;-80
2022/05/07 06:33:44;;;;;;;22.73;16.40;;;16.30;99.90;;;;;;5018539;28;20496;-82
2022/05/07 06:36:11;;;;;;;24.30;16.50;;;16.40;99.90;;;;;;5020582;28;20450;-81
2022/05/07 06:38:38;;;;;;;23.80;17.30;;;16.50;99.90;;;;;;5013055;28;20450;-82
2022/05/07 06:41:09;;;;;;;21.80;16.40;;;16.60;99.90;;;;;;5012729;28;20449;-80
2022/05/07 06:43:36;;;;;;;21.90;16.37;;;16.80;99.90;;;;;;5017068;28;20559;-83
2022/05/07 06:46:03;;;;;;;21.10;17.33;;;16.80;99.90;;;;;;5010427;28;20459;-81
2022/05/07 06:48:30;;;;;;;24.30;18.20;;;16.90;99.90;;;;;;5009153;28;20457;-83
2022/05/07 06:51:01;;;;;;;25.50;18.50;;;16.90;99.90;;;;;;5010254;28;20476;-80
2022/05/07 06:53:28;;;;;;;26.20;18.83;;;16.90;99.90;;;;;;5008087;28;20495;-83
2022/05/07 06:55:59;;;;;;;22.50;17.70;;;17.00;99.90;;;;;;5017623;28;20457;-81
2022/05/07 06:58:31;;;;;;;25.40;17.13;;;17.00;99.90;;;;;;5018043;28;20446;-80
2022/05/07 07:01:04;;;;;;;23.80;18.20;;;16.90;99.90;;;;;;5016844;28;20476;-81
2022/05/07 07:03:31;;;;;;;24.30;17.80;;;16.90;99.90;;;;;;5007751;28;20477;-84
2022/05/07 07:05:59;;;;;;;27.13;17.77;;;16.90;99.90;;;;;;5013982;28;21003;-81
2022/05/07 07:08:28;;;;;;;21.40;16.23;;;17.00;99.90;;;;;;5016180;28;20453;-81
2022/05/07 07:10:55;;;;;;;22.17;17.30;;;17.10;99.90;;;;;;5010374;28;20494;-82
2022/05/07 07:13:22;;;;;;;24.67;17.20;;;17.30;99.90;;;;;;5001941;28;21025;-81
2022/05/07 07:15:50;;;;;;;24.17;16.73;;;17.40;99.90;;;;;;5009729;28;20442;-81
2022/05/07 07:18:17;;;;;;;24.07;17.10;;;17.50;99.90;;;;;;5017574;28;20825;-82
2022/05/07 07:20:48;;;;;;;24.73;17.50;;;17.50;99.90;;;;;;5017364;28;20839;-81
2022/05/07 07:23:15;;;;;;;21.17;17.23;;;17.70;99.90;;;;;;5019126;28;20519;-82
2022/05/07 07:25:43;;;;;;;23.53;17.20;;;17.80;99.90;;;;;;5018373;28;20851;-82
2022/05/07 07:28:11;;;;;;;24.20;18.13;;;17.80;99.90;;;;;;5016047;28;20447;-82
2022/05/07 07:30:38;;;;;;;28.00;17.53;;;17.80;99.90;;;;;;5019503;28;20468;-83
2022/05/07 07:33:07;;;;;;;26.00;17.77;;;18.00;99.90;;;;;;5018338;28;20504;-81
2022/05/07 07:35:34;;;;;;;23.60;17.03;;;18.10;99.90;;;;;;5020064;28;20445;-84
2022/05/07 07:38:01;;;;;;;27.30;18.70;;;18.30;99.90;;;;;;5039590;28;20467;-84
2022/05/07 07:40:29;;;;;;;22.03;16.90;;;18.40;99.90;;;;;;5043142;28;20430;-84
2022/05/07 07:42:55;;;;;;;26.00;17.93;;;18.40;99.90;;;;;;5046250;28;20462;-82
2022/05/07 07:48:10;;;;;;;25.20;17.57;;;18.60;99.90;;;;;;5031033;28;20453;-84
2022/05/07 07:50:38;;;;;;;21.80;16.50;;;18.70;99.90;;;;;;5027808;28;20476;-83
2022/05/07 07:53:06;;;;;;;23.70;16.87;;;18.70;99.90;;;;;;5044439;28;20535;-82
2022/05/07 07:55:34;;;;;;;21.47;16.53;;;19.00;99.90;;;;;;5041627;28;20444;-84
2022/05/07 07:58:02;;;;;;;24.33;17.30;;;19.20;99.90;;;;;;5038633;28;20457;-86
2022/05/07 08:00:30;;;;;;;20.70;15.40;;;19.60;99.90;;;;;;5038960;28;20507;-84
2022/05/07 08:02:59;;;;;;;21.77;16.70;;;19.90;99.90;;;;;;5039327;28;20456;-83
2022/05/07 08:05:29;;;;;;;23.97;16.63;;;20.40;99.90;;;;;;5045259;28;20424;-81
2022/05/07 08:13:26;;;;;;;18.47;14.10;;;22.10;99.90;;;;;;5032905;28;20561;-81
2022/05/07 08:15:53;;;;;;;18.20;15.40;;;23.10;99.90;;;;;;5030828;28;20474;-80
2022/05/07 08:18:20;;;;;;;18.60;14.53;;;23.30;99.90;;;;;;5033397;28;20457;-79
2022/05/07 08:20:48;;;;;;;21.80;14.80;;;23.80;99.90;;;;;;5037425;28;20457;-80
2022/05/07 08:23:15;;;;;;;18.37;14.07;;;24.80;99.90;;;;;;5024952;28;20474;-80
2022/05/07 08:25:42;;;;;;;17.10;13.20;;;25.30;99.90;;;;;;5024348;28;20456;-81
2022/05/07 08:28:09;;;;;;;21.70;14.70;;;26.00;99.90;;;;;;5030725;28;20433;-81
2022/05/07 08:30:36;;;;;;;19.20;14.20;;;26.50;99.90;;;;;;5017788;28;20450;-81
2022/05/07 08:33:04;;;;;;;16.73;13.10;;;27.60;99.90;;;;;;5022213;28;20504;-81
2022/05/07 08:35:31;;;;;;;16.27;12.30;;;27.70;99.90;;;;;;5023300;28;20453;-81
2022/05/07 08:37:59;;;;;;;16.37;12.73;;;28.50;99.40;;;;;;5022689;28;20458;-82
2022/05/07 08:40:27;;;;;;;16.10;12.77;;;29.10;95.40;;;;;;5022217;28;20473;-81
2022/05/07 08:42:54;;;;;;;17.23;12.80;;;29.50;95.50;;;;;;5018571;28;20465;-79
2022/05/07 08:45:21;;;;;;;17.70;12.53;;;29.80;92.70;;;;;;5020258;28;20467;-80
2022/05/07 08:47:51;;;;;;;17.83;11.67;;;30.30;90.50;;;;;;5016707;28;20544;-81
2022/05/07 08:50:19;;;;;;;20.93;13.30;;;30.60;85.90;;;;;;5026359;28;20464;-80
2022/05/07 08:52:47;;;;;;;15.90;11.27;;;30.60;81.60;;;;;;5015406;28;20485;-81
2022/05/07 08:55:17;;;;;;;18.83;13.10;;;31.10;82.80;;;;;;5017400;28;20446;-81
2022/05/07 08:57:47;;;;;;;17.63;11.97;;;31.40;77.90;;;;;;5010667;28;20486;-81
2022/05/07 09:00:16;;;;;;;14.37;11.50;;;30.90;75.40;;;;;;5018240;28;20468;-81
2022/05/07 09:02:45;;;;;;;13.90;10.93;;;30.70;76.60;;;;;;5011722;28;20473;-80
2022/05/07 09:05:14;;;;;;;15.53;10.90;;;31.70;76.80;;;;;;5011460;28;21004;-81
2022/05/07 09:07:52;;;;;;;19.03;12.47;;;32.40;77.10;;;;;;5016745;28;20446;-81
2022/05/07 09:10:21;;;;;;;17.90;12.67;;;32.60;74.10;;;;;;5018047;28;20850;-80
2022/05/07 09:12:48;;;;;;;17.47;12.50;;;33.30;69.80;;;;;;5010415;28;20490;-82
2022/05/07 09:15:15;;;;;;;14.60;12.70;;;33.70;71.80;;;;;;5016852;28;20463;-82
2022/05/07 09:17:48;;;;;;;18.57;14.77;;;33.60;66.30;;;;;;5012010;28;20503;-82
2022/05/07 09:20:18;;;;;;;16.00;12.23;;;32.50;65.30;;;;;;5015488;28;20548;-80
2022/05/07 09:22:50;;;;;;;20.63;12.97;;;33.80;68.30;;;;;;5012902;28;20480;-79
2022/05/07 09:25:22;;;;;;;19.00;13.70;;;34.70;63.60;;;;;;5011052;28;20457;-79
2022/05/07 09:27:51;;;;;;;13.97;12.27;;;35.40;66.00;;;;;;5013459;28;20695;-80
2022/05/07 09:30:23;;;;;;;14.53;13.00;;;35.90;63.00;;;;;;5019222;28;20457;-78
2022/05/07 09:32:51;;;;;;;16.10;14.20;;;35.80;61.20;;;;;;5016167;28;20497;-79
2022/05/07 09:38:05;;;;;;;17.93;16.20;;;36.00;58.40;;;;;;5017458;28;20436;-84
2022/05/07 09:40:39;;;;;;;17.70;15.93;;;35.40;55.70;;;;;;5025210;28;20555;-82
2022/05/07 09:43:07;;;;;;;17.27;13.97;;;33.70;55.40;;;;;;5013855;28;20545;-81
2022/05/07 09:45:35;;;;;;;19.20;16.17;;;32.30;57.70;;;;;;5014247;28;20460;-81
2022/05/07 09:48:02;;;;;;;18.93;14.10;;;31.10;58.70;;;;;;5012328;28;20468;-82
2022/05/07 09:50:44;;;;;;;21.50;17.33;;;30.30;61.50;;;;;;5016014;28;20452;-82
2022/05/07 09:58:44;;;;;;;21.47;15.93;;;28.00;66.50;;;;;;5026191;28;20440;-84
2022/05/07 10:01:27;;;;;;;19.47;16.80;;;29.70;66.10;;;;;;5026253;28;21163;-79
2022/05/07 10:04:06;;;;;;;22.93;20.20;;;30.70;62.10;;;;;;5022470;28;20496;-82
2022/05/07 10:06:45;;;;;;;18.90;14.73;;;32.50;60.80;;;;;;5019109;28;20511;-80
2022/05/07 10:09:26;;;;;;;15.83;14.20;;;33.80;62.60;;;;;;5024085;28;20556;-83
2022/05/07 10:11:56;;;;;;;17.70;15.10;;;34.90;59.60;;;;;;5028327;28;20449;-79
2022/05/07 10:14:31;;;;;;;19.93;17.80;;;35.40;58.70;;;;;;5024549;28;20498;-82
2022/05/07 10:17:00;;;;;;;16.20;14.50;;;36.10;56.40;;;;;;5035985;28;20475;-82
2022/05/07 10:19:40;;;;;;;20.40;15.40;;;37.20;57.10;;;;;;5027933;28;20454;-81
2022/05/07 10:22:21;;;;;;;15.47;13.87;;;38.20;57.30;;;;;;5030643;28;20464;-82
2022/05/07 10:24:48;;;;;;;15.43;13.10;;;38.50;55.50;;;;;;5025855;28;20449;-80
2022/05/07 10:27:22;;;;;;;22.63;18.53;;;39.30;56.40;;;;;;5030010;28;20457;-80
2022/05/07 10:29:50;;;;;;;15.43;14.00;;;39.50;52.20;;;;;;5025323;28;20446;-80
2022/05/07 10:32:18;;;;;;;20.43;18.43;;;39.20;51.50;;;;;;5021951;28;20449;-82
2022/05/07 10:34:54;;;;;;;17.93;16.20;;;37.20;49.80;;;;;;5023756;28;20485;-80
2022/05/07 10:37:24;;;;;;;18.97;16.97;;;35.10;52.30;;;;;;5005151;28;20517;-81
2022/05/07 10:39:52;;;;;;;20.13;17.80;;;33.20;53.30;;;;;;5009379;28;20454;-80
2022/05/07 10:42:27;;;;;;;19.37;16.80;;;33.20;55.60;;;;;;5020803;28;20492;-81
2022/05/07 10:44:54;;;;;;;15.40;13.90;;;33.70;52.80;;;;;;5021445;28;20445;-79
2022/05/07 10:47:25;;;;;;;19.80;15.83;;;33.70;53.80;;;;;;5021688;28;20453;-80
2022/05/07 10:49:56;;;;;;;17.50;15.70;;;33.30;54.80;;;;;;5023072;28;20457;-79
2022/05/07 10:52:34;;;;;;;20.90;17.63;;;34.10;53.40;;;;;;5019355;28;20524;-79
2022/05/07 10:55:11;;;;;;;19.57;17.63;;;35.10;52.70;;;;;;5022568;28;20493;-81
2022/05/07 10:57:41;;;;;;;20.77;18.67;;;36.40;52.20;;;;;;5021140;28;20453;-81
2022/05/07 11:00:17;;;;;;;14.57;13.17;;;36.20;49.80;;;;;;5019069;28;20576;-81
2022/05/07 11:02:45;;;;;;;16.93;15.20;;;37.40;51.80;;;;;;5014570;28;20474;-83
2022/05/07 11:05:20;;;;;;;18.30;14.83;;;38.50;49.90;;;;;;5008381;28;20449;-82
2022/05/07 11:07:47;;;;;;;13.53;12.20;;;38.10;48.50;;;;;;5023097;28;20532;-82
2022/05/07 11:10:15;;;;;;;16.97;15.37;;;35.80;49.80;;;;;;5024534;28;20442;-81
2022/05/07 11:12:44;;;;;;;14.63;13.10;;;33.60;51.50;;;;;;5020828;28;20493;-82
2022/05/07 11:15:12;;;;;;;12.40;11.10;;;32.40;52.70;;;;;;5024204;28;20553;-82
2022/05/07 11:17:40;;;;;;;13.23;11.33;;;32.00;55.90;;;;;;5023854;28;20452;-81
2022/05/07 11:20:09;;;;;;;11.67;10.47;;;32.50;56.50;;;;;;5024738;28;20468;-83
2022/05/07 11:22:39;;;;;;;16.07;14.17;;;34.10;54.70;;;;;;5023000;28;20508;-81
2022/05/07 11:25:07;;;;;;;14.37;12.53;;;33.70;52.20;;;;;;5004985;28;20454;-82
2022/05/07 11:27:34;;;;;;;11.77;10.57;;;32.60;51.00;;;;;;5014326;28;20454;-81
2022/05/07 11:30:05;;;;;;;13.60;12.17;;;32.00;54.10;;;;;;5028470;28;20460;-83
2022/05/07 11:32:41;;;;;;;18.17;13.30;;;31.60;54.80;;;;;;5028479;28;20453;-82
2022/05/07 11:35:09;;;;;;;10.10;8.30;;;33.30;54.30;;;;;;5027798;28;20484;-82
2022/05/07 11:37:40;;;;;;;10.80;9.47;;;35.30;53.30;;;;;;5026890;28;20458;-84
2022/05/07 11:40:26;;;;;;;12.30;11.03;;;34.90;51.00;;;;;;5025656;28;20454;-85
2022/05/07 11:45:25;;;;;;;10.83;9.07;;;34.50;51.50;;;;;;5026725;28;20461;-84
2022/05/07 11:45:41;;;;;;;13.43;11.70;;;33.90;54.20;;;;;;5027238;28;20458;-84
2022/05/07 11:48:14;;;;;;;10.83;8.77;;;32.70;52.90;;;;;;5025334;28;20457;-84
2022/05/07 11:50:51;;;;;;;11.93;10.30;;;32.40;56.10;;;;;;5026294;28;21170;-81
2022/05/07 11:53:20;;;;;;;14.13;11.77;;;31.20;55.30;;;;;;5026808;28;20477;-84
2022/05/07 11:55:50;;;;;;;16.80;11.87;;;30.30;55.50;;;;;;5026602;28;20453;-82
2022/05/07 11:58:21;;;;;;;12.80;10.63;;;29.30;56.90;;;;;;5025969;28;20445;-82
2022/05/07 12:00:50;;;;;;;11.20;9.87;;;28.60;58.50;;;;;;5022558;28;20454;-82
2022/05/07 12:03:18;;;;;;;16.20;13.80;;;27.70;62.00;;;;;;5024021;28;20469;-83
2022/05/07 12:05:47;;;;;;;17.87;13.77;;;26.50;67.60;;;;;;5053182;22;20465;-78
2022/05/07 12:08:16;;;;;;;16.37;14.77;;;25.20;74.40;;;;;;5015387;28;20470;-81
2022/05/07 12:10:43;;;;;;;19.80;15.07;;;24.20;82.20;;;;;;5015993;28;20453;-81
2022/05/07 12:13:11;;;;;;;18.57;16.60;;;23.30;99.90;;;;;;5024067;28;20449;-81
2022/05/07 12:18:25;;;;;;;19.40;16.87;;;22.60;99.90;;;;;;5002312;28;20481;-81
2022/05/07 12:20:52;;;;;;;19.77;16.80;;;22.30;99.90;;;;;;5001363;28;20512;-80
2022/05/07 12:31:32;;;;;;;12.50;11.20;;;24.30;99.90;;;;;;4995294;28;20429;-81
2022/05/07 12:34:00;;;;;;;12.83;11.50;;;24.50;99.90;;;;;;4996684;28;20522;-80
2022/05/07 12:36:36;;;;;;;12.67;9.60;;;24.50;99.90;;;;;;4995688;28;20515;-79
2022/05/07 12:39:03;;;;;;;13.57;10.20;;;24.30;99.90;;;;;;4995183;28;20835;-79
2022/05/07 12:41:30;;;;;;;12.77;11.57;;;24.10;99.90;;;;;;4995493;28;20490;-80
2022/05/07 12:44:00;;;;;;;13.80;12.40;;;24.00;99.90;;;;;;4995872;28;20450;-81
2022/05/07 12:46:27;;;;;;;14.17;12.70;;;23.80;99.90;;;;;;4995739;28;20479;-81
2022/05/07 12:48:57;;;;;;;16.60;13.40;;;23.80;99.90;;;;;;4995875;28;20458;-82
2022/05/07 12:51:27;;;;;;;13.33;12.03;;;23.80;99.90;;;;;;4993572;28;20885;-81
2022/05/07 12:53:54;;;;;;;13.33;12.03;;;23.90;99.90;;;;;;4995325;28;20549;-82
2022/05/07 12:56:22;;;;;;;16.03;14.43;;;24.00;99.90;;;;;;4994277;28;20481;-81
2022/05/07 12:58:51;;;;;;;15.47;13.97;;;24.00;99.90;;;;;;4994754;28;20456;-80
2022/05/07 13:01:18;;;;;;;14.97;13.40;;;23.90;99.90;;;;;;4995293;28;20454;-82
2022/05/07 13:03:45;;;;;;;13.60;12.30;;;23.80;99.90;;;;;;4995377;28;20530;-81
2022/05/07 13:06:14;;;;;;;15.43;13.90;;;23.70;99.90;;;;;;4992823;28;20559;-81
2022/05/07 13:08:42;;;;;;;15.70;14.10;;;23.60;99.90;;;;;;4994953;28;20463;-81
2022/05/07 13:11:10;;;;;;;15.80;14.10;;;23.70;99.90;;;;;;4995635;28;20447;-80
2022/05/07 13:13:37;;;;;;;16.07;14.47;;;23.80;99.90;;;;;;4993494;28;20454;-81
2022/05/07 13:16:04;;;;;;;17.40;14.67;;;24.30;99.90;;;;;;4993226;28;20485;-80
2022/05/07 13:18:31;;;;;;;16.73;12.60;;;24.50;99.90;;;;;;4996166;28;20451;-82